createdAt,value
2018-05-11T00:01:47.487Z,31.33
2018-05-11T00:04:15.831Z,29.43
2018-05-11T00:06:44.399Z,25.37
2018-05-11T00:09:12.647Z,24.17
2018-05-11T00:11:40.923Z,25.33
2018-05-11T00:14:09.171Z,27.70
2018-05-11T00:16:38.196Z,23.53
2018-05-11T00:19:06.589Z,25.37
2018-05-11T00:21:34.836Z,23.80
2018-05-11T00:24:03.615Z,25.77
2018-05-11T00:26:32.954Z,25.93
2018-05-11T00:29:01.204Z,27.70
2018-05-11T00:31:29.713Z,24.07
2018-05-11T00:33:57.999Z,31.47
2018-05-11T00:36:26.252Z,26.87
2018-05-11T00:38:55.032Z,20.47
2018-05-11T00:41:23.308Z,25.60
2018-05-11T00:43:51.609Z,21.50
2018-05-11T00:46:19.859Z,31.43
2018-05-11T00:48:48.366Z,23.93
2018-05-11T00:51:16.616Z,29.10
2018-05-11T00:53:44.864Z,23.10
2018-05-11T00:56:13.163Z,27.70
2018-05-11T00:58:41.423Z,24.97
2018-05-11T01:01:09.678Z,28.33
2018-05-11T01:03:39.527Z,21.93
2018-05-11T01:06:08.551Z,33.63
2018-05-11T01:08:36.892Z,22.20
2018-05-11T01:11:06.232Z,26.07
2018-05-11T01:13:34.583Z,30.33
2018-05-11T01:16:02.847Z,33.60
2018-05-11T01:18:31.123Z,24.17
2018-05-11T01:20:59.379Z,26.80
2018-05-11T01:23:27.640Z,21.80
2018-05-11T01:25:56.205Z,21.27
2018-05-11T01:28:24.443Z,25.73
2018-05-11T01:30:52.974Z,26.63
2018-05-11T01:33:21.345Z,30.03
2018-05-11T01:35:49.714Z,26.23
2018-05-11T01:38:17.983Z,26.60
2018-05-11T01:40:46.261Z,25.80
2018-05-11T01:43:14.520Z,23.33
2018-05-11T01:45:42.787Z,31.70
2018-05-11T01:48:11.059Z,25.60
2018-05-11T01:50:39.380Z,28.37
2018-05-11T01:53:07.643Z,37.33
2018-05-11T01:55:36.465Z,24.07
2018-05-11T01:58:04.708Z,27.73
2018-05-11T02:00:33.019Z,32.67
2018-05-11T02:03:01.288Z,28.43
2018-05-11T02:05:29.617Z,36.90
2018-05-11T02:07:59.143Z,24.87
2018-05-11T02:10:28.095Z,25.40
2018-05-11T02:12:58.099Z,25.67
2018-05-11T02:15:26.353Z,37.60
2018-05-11T02:17:54.934Z,29.13
2018-05-11T02:20:23.188Z,30.67
2018-05-11T02:22:51.451Z,22.13
2018-05-11T02:25:21.060Z,28.07
2018-05-11T02:27:49.692Z,23.30
2018-05-11T02:30:17.936Z,26.40
2018-05-11T02:32:46.212Z,25.23
2018-05-11T02:35:14.473Z,25.50
2018-05-11T02:37:42.735Z,26.77
2018-05-11T02:40:11.813Z,23.77
2018-05-11T02:42:40.073Z,21.57
2018-05-11T02:45:08.315Z,24.63
2018-05-11T02:47:36.591Z,33.63
2018-05-11T02:50:04.847Z,26.37
2018-05-11T02:52:33.096Z,25.47
2018-05-11T02:55:03.337Z,24.17
2018-05-11T02:57:32.365Z,27.53
2018-05-11T03:00:00.760Z,27.10
2018-05-11T03:02:29.343Z,32.30
2018-05-11T03:04:57.620Z,38.90
2018-05-11T03:07:25.886Z,29.03
2018-05-11T03:09:54.160Z,28.47
2018-05-11T03:12:22.653Z,29.80
2018-05-11T03:14:50.917Z,30.53
2018-05-11T03:17:19.259Z,28.03
2018-05-11T03:19:47.512Z,34.47
2018-05-11T03:22:15.763Z,29.30
2018-05-11T03:24:44.239Z,31.77
2018-05-11T03:27:12.941Z,32.80
2018-05-11T03:29:41.340Z,28.13
2018-05-11T03:32:10.595Z,35.40
2018-05-11T03:34:38.847Z,29.23
2018-05-11T03:37:07.107Z,33.67
2018-05-11T03:39:35.395Z,29.73
2018-05-11T03:42:04.424Z,28.23
2018-05-11T03:44:32.724Z,24.90
2018-05-11T03:47:02.571Z,25.47
2018-05-11T03:49:31.363Z,27.67
2018-05-11T03:52:00.626Z,31.30
2018-05-11T03:54:29.796Z,30.27
2018-05-11T03:56:58.043Z,28.63
2018-05-11T03:59:27.063Z,25.60
2018-05-11T04:02:07.430Z,32.50
2018-05-11T04:04:47.476Z,28.97
2018-05-11T04:07:27.627Z,32.10
2018-05-11T04:09:55.875Z,30.30
2018-05-11T04:12:24.899Z,31.73
2018-05-11T04:14:53.176Z,32.00
2018-05-11T04:17:21.838Z,29.87
2018-05-11T04:19:50.084Z,31.13
2018-05-11T04:22:19.355Z,33.60
2018-05-11T04:24:47.613Z,27.53
2018-05-11T04:27:15.873Z,32.07
2018-05-11T04:29:44.927Z,30.87
2018-05-11T04:32:13.168Z,26.77
2018-05-11T04:34:41.432Z,30.27
2018-05-11T04:37:09.767Z,35.37
2018-05-11T04:39:37.972Z,33.70
2018-05-11T04:42:06.996Z,38.23
2018-05-11T04:44:36.352Z,26.27
2018-05-11T04:47:05.360Z,28.27
2018-05-11T04:49:33.600Z,32.83
2018-05-11T04:52:01.880Z,33.27
2018-05-11T04:54:30.299Z,30.57
2018-05-11T04:56:58.535Z,34.10
2018-05-11T04:59:26.815Z,25.47
2018-05-11T05:01:55.060Z,31.00
2018-05-11T05:04:24.196Z,28.33
2018-05-11T05:06:52.795Z,28.40
2018-05-11T05:09:21.072Z,32.23
2018-05-11T05:11:49.291Z,30.47
2018-05-11T05:14:17.563Z,29.07
2018-05-11T05:16:45.814Z,30.60
2018-05-11T05:19:14.102Z,33.27
2018-05-11T05:21:42.347Z,28.53
2018-05-11T05:24:11.356Z,23.90
2018-05-11T05:26:39.617Z,24.20
2018-05-11T05:29:08.672Z,25.63
2018-05-11T05:31:37.992Z,27.83
2018-05-11T05:34:06.252Z,33.60
2018-05-11T05:36:34.552Z,35.37
2018-05-11T05:39:02.809Z,40.67
2018-05-11T05:41:31.063Z,29.27
2018-05-11T05:43:59.507Z,24.93
2018-05-11T05:46:28.647Z,26.90
2018-05-11T05:48:56.879Z,25.63
2018-05-11T05:51:26.546Z,26.73
2018-05-11T05:53:54.796Z,27.83
2018-05-11T05:56:23.063Z,26.33
2018-05-11T05:58:52.002Z,29.40
2018-05-11T06:01:20.236Z,26.00
2018-05-11T06:03:48.719Z,28.87
2018-05-11T06:06:16.999Z,27.00
2018-05-11T06:08:45.476Z,27.50
2018-05-11T06:11:13.719Z,33.27
2018-05-11T06:13:42.256Z,28.60
2018-05-11T06:16:10.569Z,30.07
2018-05-11T06:18:38.827Z,32.07
2018-05-11T06:21:07.101Z,32.90
2018-05-11T06:23:35.539Z,33.07
2018-05-11T06:26:04.536Z,35.87
2018-05-11T06:28:32.832Z,40.40
2018-05-11T06:31:01.084Z,34.67
2018-05-11T06:33:29.871Z,33.13
2018-05-11T06:35:58.560Z,36.90
2018-05-11T06:38:26.818Z,29.20
2018-05-11T06:40:55.068Z,39.80
2018-05-11T06:43:23.372Z,35.57
2018-05-11T06:45:51.600Z,37.87
2018-05-11T06:48:20.488Z,35.07
2018-05-11T06:50:48.767Z,34.00
2018-05-11T06:53:17.024Z,32.40
2018-05-11T06:55:45.300Z,49.30
2018-05-11T06:58:14.619Z,41.10
2018-05-11T07:00:42.875Z,34.90
2018-05-11T07:03:11.132Z,34.13
2018-05-11T07:05:39.409Z,39.60
2018-05-11T07:08:08.425Z,36.53
2018-05-11T07:10:36.787Z,42.17
2018-05-11T07:13:05.243Z,49.97
2018-05-11T07:15:33.508Z,44.60
2018-05-11T07:18:01.764Z,38.97
2018-05-11T07:20:30.107Z,39.60
2018-05-11T07:22:58.413Z,39.03
2018-05-11T07:25:26.771Z,34.63
2018-05-11T07:27:55.172Z,39.07
2018-05-11T07:30:23.428Z,31.70
2018-05-11T07:32:51.936Z,39.90
2018-05-11T07:35:20.619Z,41.23
2018-05-11T07:37:48.871Z,38.40
2018-05-11T07:40:17.128Z,40.67
2018-05-11T07:42:45.680Z,31.30
2018-05-11T07:45:13.939Z,31.47
2018-05-11T07:47:42.197Z,30.13
2018-05-11T07:50:10.462Z,29.73
2018-05-11T07:52:38.715Z,36.97
2018-05-11T07:55:07.012Z,32.30
2018-05-11T07:57:37.833Z,31.87
2018-05-11T08:00:08.145Z,32.80
2018-05-11T08:02:36.381Z,33.27
2018-05-11T08:05:04.859Z,33.13
2018-05-11T08:07:33.107Z,29.77
2018-05-11T08:10:02.284Z,30.63
2018-05-11T08:12:30.597Z,30.60
2018-05-11T08:14:58.961Z,28.87
2018-05-11T08:17:27.962Z,30.20
2018-05-11T08:19:56.276Z,28.60
2018-05-11T08:22:24.527Z,28.53
2018-05-11T08:24:52.808Z,28.30
2018-05-11T08:27:21.224Z,29.93
2018-05-11T08:29:49.517Z,19.80
2018-05-11T08:32:18.613Z,24.20
2018-05-11T08:34:47.239Z,25.10
2018-05-11T08:37:15.915Z,23.60
2018-05-11T08:39:44.161Z,20.13
2018-05-11T08:42:12.439Z,24.90
2018-05-11T08:44:40.756Z,22.27
2018-05-11T08:47:09.018Z,25.77
2018-05-11T08:49:37.539Z,26.40
2018-05-11T08:52:05.788Z,26.73
2018-05-11T08:54:34.339Z,21.43
2018-05-11T08:57:03.916Z,26.63
2018-05-11T08:59:32.871Z,22.57
2018-05-11T09:02:01.116Z,23.13
2018-05-11T09:04:29.392Z,20.60
2018-05-11T09:06:57.647Z,22.93
2018-05-11T09:09:25.972Z,21.23
2018-05-11T09:11:54.784Z,18.70
2018-05-11T09:14:23.036Z,23.20
2018-05-11T09:16:51.573Z,23.07
2018-05-11T09:19:19.839Z,18.50
2018-05-11T09:21:48.224Z,19.47
2018-05-11T09:24:16.463Z,16.00
2018-05-11T09:26:44.757Z,18.30
2018-05-11T09:29:13.000Z,29.93
2018-05-11T09:31:41.246Z,13.17
2018-05-11T09:34:09.572Z,18.97
2018-05-11T09:36:37.879Z,10.83
2018-05-11T09:39:06.862Z,15.53
2018-05-11T09:41:36.875Z,12.17
2018-05-11T09:44:05.151Z,13.43
2018-05-11T09:46:34.476Z,14.80
2018-05-11T09:49:02.830Z,11.77
2018-05-11T09:51:31.232Z,12.80
2018-05-11T09:53:59.600Z,10.43
2018-05-11T09:56:28.203Z,16.37
2018-05-11T09:58:56.555Z,15.20
2018-05-11T10:01:24.858Z,14.00
2018-05-11T10:03:53.137Z,15.47
2018-05-11T10:06:21.571Z,25.13
2018-05-11T10:08:49.832Z,15.60
2018-05-11T10:11:18.108Z,16.97
2018-05-11T10:13:46.499Z,15.27
2018-05-11T10:16:14.757Z,13.33
2018-05-11T10:18:43.467Z,17.97
2018-05-11T10:21:11.804Z,16.13
2018-05-11T10:23:40.831Z,17.77
2018-05-11T10:26:09.243Z,16.27
2018-05-11T10:28:37.486Z,20.43
2018-05-11T10:31:05.736Z,17.47
2018-05-11T10:33:34.005Z,16.50
2018-05-11T10:36:03.056Z,17.60
2018-05-11T10:38:31.303Z,17.00
2018-05-11T10:40:59.654Z,19.07
2018-05-11T10:43:28.135Z,24.27
2018-05-11T10:45:56.376Z,17.37
2018-05-11T10:48:24.720Z,15.90
2018-05-11T10:50:52.928Z,18.60
2018-05-11T10:53:21.176Z,14.87
2018-05-11T10:55:50.653Z,18.93
2018-05-11T10:58:20.621Z,16.80
2018-05-11T11:00:48.896Z,17.03
2018-05-11T11:03:17.675Z,21.53
2018-05-11T11:05:45.993Z,11.20
2018-05-11T11:08:14.242Z,13.93
2018-05-11T11:10:42.507Z,15.67
2018-05-11T11:13:10.760Z,19.03
2018-05-11T11:15:39.009Z,18.10
2018-05-11T11:18:08.536Z,14.77
2018-05-11T11:20:36.853Z,19.37
2018-05-11T11:23:05.219Z,11.40
2018-05-11T11:25:34.144Z,13.17
2018-05-11T11:28:02.402Z,11.40
2018-05-11T11:30:30.677Z,14.13
2018-05-11T11:32:59.418Z,10.43
2018-05-11T11:35:29.364Z,16.37
2018-05-11T11:37:57.711Z,13.20
2018-05-11T11:40:26.871Z,11.53
2018-05-11T11:42:56.344Z,13.67
2018-05-11T11:45:24.844Z,12.50
2018-05-11T11:47:53.512Z,13.80
2018-05-11T11:50:22.099Z,15.67
2018-05-11T11:52:50.569Z,12.53
2018-05-11T11:55:18.823Z,15.90
2018-05-11T11:57:47.073Z,13.33
2018-05-11T12:00:15.553Z,13.53
2018-05-11T12:02:44.032Z,12.33
2018-05-11T12:05:12.267Z,11.93
2018-05-11T12:07:40.684Z,15.90
2018-05-11T12:10:09.087Z,14.60
2018-05-11T12:12:39.750Z,10.70
2018-05-11T12:15:08.029Z,11.43
2018-05-11T12:17:36.287Z,12.33
2018-05-11T12:20:04.747Z,14.90
2018-05-11T12:22:33.244Z,12.50
2018-05-11T12:25:02.368Z,13.17
2018-05-11T12:27:30.807Z,12.83
2018-05-11T12:29:59.039Z,12.90
2018-05-11T12:32:27.403Z,17.50
2018-05-11T12:34:55.664Z,13.53
2018-05-11T12:37:24.019Z,10.70
2018-05-11T12:39:53.077Z,13.83
2018-05-11T12:42:22.305Z,10.00
2018-05-11T12:44:50.578Z,14.93
2018-05-11T12:47:20.736Z,12.83
2018-05-11T12:49:49.057Z,14.53
2018-05-11T12:52:17.317Z,13.43
2018-05-11T12:54:45.955Z,13.87
2018-05-11T12:57:14.495Z,17.63
2018-05-11T12:59:43.180Z,16.47
2018-05-11T13:02:12.279Z,12.43
2018-05-11T13:04:40.527Z,11.97
2018-05-11T13:07:09.857Z,11.43
2018-05-11T13:09:38.341Z,12.80
2018-05-11T13:12:06.576Z,10.90
2018-05-11T13:14:34.824Z,9.10
2018-05-11T13:17:03.543Z,8.60
2018-05-11T13:19:32.001Z,10.93
2018-05-11T13:22:01.012Z,11.73
2018-05-11T13:24:29.582Z,12.83
2018-05-11T13:26:58.235Z,14.63
2018-05-11T13:29:26.487Z,11.50
2018-05-11T13:31:55.775Z,8.90
2018-05-11T13:34:24.037Z,7.77
2018-05-11T13:36:53.354Z,12.83
2018-05-11T13:39:22.140Z,8.80
2018-05-11T13:41:50.395Z,13.23
2018-05-11T13:44:19.505Z,10.33
2018-05-11T13:46:47.851Z,12.43
2018-05-11T13:49:16.868Z,7.70
2018-05-11T13:51:45.147Z,9.90
2018-05-11T13:54:13.436Z,10.00
2018-05-11T13:56:42.096Z,10.70
2018-05-11T13:59:11.100Z,9.87
2018-05-11T14:01:39.708Z,9.10
2018-05-11T14:04:08.153Z,7.53
2018-05-11T14:06:36.384Z,7.63
2018-05-11T14:09:05.594Z,8.77
2018-05-11T14:11:33.840Z,10.40
2018-05-11T14:14:02.106Z,7.63
2018-05-11T14:16:31.505Z,7.90
2018-05-11T14:18:59.826Z,11.53
2018-05-11T14:21:28.097Z,7.07
2018-05-11T14:23:56.658Z,10.10
2018-05-11T14:26:24.966Z,8.00
2018-05-11T14:28:53.235Z,13.47
2018-05-11T14:31:21.488Z,6.60
2018-05-11T14:33:49.865Z,6.67
2018-05-11T14:36:19.453Z,9.90
2018-05-11T14:38:49.167Z,6.10
2018-05-11T14:41:17.412Z,7.23
2018-05-11T14:43:46.736Z,8.03
2018-05-11T14:46:17.589Z,6.80
2018-05-11T14:48:45.842Z,7.63
2018-05-11T14:51:14.485Z,6.80
2018-05-11T14:53:42.740Z,6.77
2018-05-11T14:56:11.004Z,10.20
2018-05-11T14:58:39.489Z,9.63
2018-05-11T15:01:08.168Z,7.90
2018-05-11T15:03:36.415Z,9.77
2018-05-11T15:06:05.847Z,7.03
2018-05-11T15:08:34.563Z,7.10
2018-05-11T15:11:02.854Z,8.57
2018-05-11T15:13:31.076Z,9.73
2018-05-11T15:15:59.376Z,8.53
2018-05-11T15:18:27.615Z,10.97
2018-05-11T15:20:55.856Z,7.20
2018-05-11T15:23:24.129Z,11.20
2018-05-11T15:25:52.368Z,9.27
2018-05-11T15:28:20.609Z,7.93
2018-05-11T15:30:49.963Z,12.30
2018-05-11T15:33:18.208Z,6.60
2018-05-11T15:35:46.641Z,9.77
2018-05-11T15:38:14.934Z,12.70
2018-05-11T15:40:43.172Z,11.27
2018-05-11T15:43:11.416Z,6.93
2018-05-11T15:45:39.690Z,7.30
2018-05-11T15:48:09.021Z,9.47
2018-05-11T15:50:37.264Z,7.23
2018-05-11T15:53:06.658Z,6.80
2018-05-11T15:55:35.101Z,8.23
2018-05-11T15:58:03.325Z,8.17
2018-05-11T16:00:32.355Z,8.07
2018-05-11T16:03:00.653Z,8.70
2018-05-11T16:05:28.905Z,16.00
2018-05-11T16:07:57.179Z,7.13
2018-05-11T16:10:25.519Z,17.07
2018-05-11T16:12:54.651Z,7.80
2018-05-11T16:15:23.248Z,9.50
2018-05-11T16:17:51.488Z,7.10
2018-05-11T16:20:20.431Z,9.03
2018-05-11T16:22:48.694Z,8.80
2018-05-11T16:25:16.971Z,7.40
2018-05-11T16:27:45.235Z,12.70
2018-05-11T16:30:13.536Z,7.70
2018-05-11T16:32:41.783Z,12.13
2018-05-11T16:35:10.024Z,9.30
2018-05-11T16:37:38.663Z,7.93
2018-05-11T16:40:06.918Z,8.70
2018-05-11T16:42:36.012Z,10.00
2018-05-11T16:45:04.411Z,11.20
2018-05-11T16:47:32.768Z,8.20
2018-05-11T16:50:02.167Z,10.03
2018-05-11T16:52:31.082Z,16.40
2018-05-11T16:54:59.335Z,10.50
2018-05-11T16:57:27.588Z,14.47
2018-05-11T16:59:56.542Z,13.27
2018-05-11T17:02:24.804Z,12.10
2018-05-11T17:04:53.055Z,13.10
2018-05-11T17:07:22.544Z,11.93
2018-05-11T17:09:51.552Z,10.80
2018-05-11T17:12:19.815Z,10.63
2018-05-11T17:14:48.091Z,10.40
2018-05-11T17:17:17.152Z,11.50
2018-05-11T17:19:45.392Z,9.93
2018-05-11T17:22:14.214Z,10.83
2018-05-11T17:24:42.481Z,11.23
2018-05-11T17:27:10.732Z,10.90
2018-05-11T17:29:39.007Z,11.60
2018-05-11T17:32:07.256Z,9.80
2018-05-11T17:34:37.388Z,11.13
2018-05-11T17:37:05.679Z,12.87
2018-05-11T17:39:33.924Z,9.30
2018-05-11T17:42:02.959Z,11.07
2018-05-11T17:44:31.675Z,9.17
2018-05-11T17:46:59.959Z,9.37
2018-05-11T17:49:28.509Z,10.30
2018-05-11T17:51:57.288Z,16.63
2018-05-11T17:54:25.662Z,10.50
2018-05-11T17:56:53.911Z,11.73
2018-05-11T17:59:22.187Z,11.70
2018-05-11T18:01:50.540Z,10.70
2018-05-11T18:04:18.924Z,10.03
2018-05-11T18:06:47.407Z,11.77
2018-05-11T18:09:15.666Z,8.63
2018-05-11T18:11:44.047Z,9.60
2018-05-11T18:14:12.327Z,18.13
2018-05-11T18:16:40.563Z,9.73
2018-05-11T18:19:08.888Z,8.53
2018-05-11T18:21:37.375Z,8.80
2018-05-11T18:24:05.622Z,10.27
2018-05-11T18:26:34.254Z,12.37
2018-05-11T18:29:03.402Z,16.33
2018-05-11T18:31:31.639Z,9.63
2018-05-11T18:33:59.970Z,10.20
2018-05-11T18:36:28.226Z,10.63
2018-05-11T18:38:56.472Z,12.30
2018-05-11T18:41:24.723Z,9.23
2018-05-11T18:43:52.990Z,9.97
2018-05-11T18:46:23.719Z,9.03
2018-05-11T18:48:51.949Z,9.40
2018-05-11T18:51:20.341Z,9.70
2018-05-11T18:53:48.946Z,9.80
2018-05-11T18:56:17.690Z,13.60
2018-05-11T18:58:45.988Z,10.80
2018-05-11T19:01:14.232Z,12.00
2018-05-11T19:03:42.475Z,12.10
2018-05-11T19:06:10.751Z,12.87
2018-05-11T19:08:39.065Z,12.13
2018-05-11T19:11:08.227Z,11.30
2018-05-11T19:13:36.571Z,11.27
2018-05-11T19:16:04.860Z,12.13
2018-05-11T19:18:33.211Z,14.77
2018-05-11T19:21:01.492Z,12.40
2018-05-11T19:23:29.741Z,13.40
2018-05-11T19:25:58.247Z,11.37
2018-05-11T19:28:26.648Z,14.63
2018-05-11T19:30:54.910Z,12.03
2018-05-11T19:33:23.220Z,18.53
2018-05-11T19:35:51.534Z,11.47
2018-05-11T19:38:20.015Z,11.73
2018-05-11T19:40:48.290Z,16.70
2018-05-11T19:43:17.333Z,12.00
2018-05-11T19:45:45.726Z,11.10
2018-05-11T19:48:14.092Z,16.17
2018-05-11T19:50:42.349Z,10.60
2018-05-11T19:53:10.600Z,11.40
2018-05-11T19:55:38.888Z,17.20
2018-05-11T19:58:08.128Z,12.70
2018-05-11T20:00:36.472Z,14.90
2018-05-11T20:03:06.933Z,12.33
2018-05-11T20:05:35.188Z,12.47
2018-05-11T20:08:03.453Z,14.80
2018-05-11T20:10:32.460Z,12.63
2018-05-11T20:13:00.731Z,16.70
2018-05-11T20:15:29.249Z,13.20
2018-05-11T20:17:57.495Z,15.20
2018-05-11T20:20:26.418Z,14.30
2018-05-11T20:22:54.656Z,12.20
2018-05-11T20:25:22.912Z,15.23
2018-05-11T20:27:52.500Z,13.93
2018-05-11T20:30:20.744Z,13.10
2018-05-11T20:32:49.117Z,15.70
2018-05-11T20:35:17.327Z,12.93
2018-05-11T20:37:45.583Z,16.37
2018-05-11T20:40:14.795Z,12.33
2018-05-11T20:42:43.128Z,14.17
2018-05-11T20:45:11.385Z,13.17
2018-05-11T20:47:39.944Z,15.30
2018-05-11T20:50:09.079Z,13.93
2018-05-11T20:52:37.610Z,14.50
2018-05-11T20:55:05.866Z,21.23
2018-05-11T20:57:34.256Z,14.93
2018-05-11T21:00:03.421Z,34.73
2018-05-11T21:02:31.668Z,15.83
2018-05-11T21:05:01.292Z,17.03
2018-05-11T21:07:29.553Z,15.97
2018-05-11T21:09:57.824Z,15.33
2018-05-11T21:12:26.145Z,20.37
2018-05-11T21:14:54.379Z,16.67
2018-05-11T21:17:22.644Z,28.83
2018-05-11T21:19:51.037Z,17.67
2018-05-11T21:22:20.061Z,17.30
2018-05-11T21:24:48.712Z,25.07
2018-05-11T21:27:17.193Z,19.53
2018-05-11T21:29:45.387Z,17.73
2018-05-11T21:32:13.643Z,18.57
2018-05-11T21:34:41.937Z,19.60
2018-05-11T21:37:10.280Z,20.83
2018-05-11T21:39:38.851Z,17.87
2018-05-11T21:42:07.114Z,17.70
2018-05-11T21:44:35.419Z,20.73
2018-05-11T21:47:03.667Z,19.60
2018-05-11T21:49:32.251Z,18.33
2018-05-11T21:52:00.546Z,18.60
2018-05-11T21:54:28.826Z,19.37
2018-05-11T21:56:58.084Z,18.37
2018-05-11T21:59:26.356Z,18.77
2018-05-11T22:01:55.809Z,20.40
2018-05-11T22:04:24.181Z,18.83
2018-05-11T22:06:52.439Z,21.70
2018-05-11T22:09:20.691Z,21.47
2018-05-11T22:11:50.535Z,23.20
2018-05-11T22:14:18.803Z,22.43
2018-05-11T22:16:47.155Z,20.10
2018-05-11T22:19:15.559Z,24.50
2018-05-11T22:21:43.815Z,24.20
2018-05-11T22:24:12.369Z,20.20
2018-05-11T22:26:41.583Z,22.97
2018-05-11T22:29:10.607Z,20.30
2018-05-11T22:31:38.851Z,23.23
2018-05-11T22:34:07.379Z,22.73
2018-05-11T22:36:35.673Z,21.90
2018-05-11T22:39:04.076Z,21.83
2018-05-11T22:41:33.117Z,24.73
2018-05-11T22:44:01.368Z,30.60
2018-05-11T22:46:29.652Z,24.30
2018-05-11T22:48:57.950Z,20.03
2018-05-11T22:51:26.255Z,19.40
2018-05-11T22:53:54.648Z,20.07
2018-05-11T22:56:23.059Z,21.07
2018-05-11T22:58:51.395Z,23.80
2018-05-11T23:01:19.651Z,28.80
2018-05-11T23:03:47.927Z,18.50
2018-05-11T23:06:16.190Z,18.17
2018-05-11T23:08:44.439Z,20.17
2018-05-11T23:11:13.696Z,22.17
2018-05-11T23:13:42.689Z,18.50
2018-05-11T23:16:10.938Z,18.63
2018-05-11T23:18:39.487Z,18.10
2018-05-11T23:21:07.752Z,19.63
2018-05-11T23:23:36.145Z,22.60
2018-05-11T23:26:04.420Z,22.83
2018-05-11T23:28:32.679Z,18.40
2018-05-11T23:31:01.025Z,18.90
2018-05-11T23:33:30.268Z,19.57
2018-05-11T23:35:59.286Z,22.87
2018-05-11T23:38:27.543Z,20.03
2018-05-11T23:40:56.074Z,23.93
2018-05-11T23:43:24.316Z,21.03
2018-05-11T23:45:52.571Z,18.93
2018-05-11T23:48:20.852Z,21.20
2018-05-11T23:50:49.868Z,20.10
2018-05-11T23:53:18.216Z,23.83
2018-05-11T23:55:46.595Z,19.50
2018-05-11T23:58:15.952Z,25.57
